createdAt,value
2022-12-28T00:00:11.782Z,2.50
2022-12-28T00:00:53.563Z,2.70
2022-12-28T00:01:35.616Z,2.90
2022-12-28T00:02:18.386Z,2.20
2022-12-28T00:03:00.197Z,1.98
2022-12-28T00:03:42.302Z,2.20
2022-12-28T00:04:24.072Z,2.00
2022-12-28T00:05:06.041Z,2.28
2022-12-28T00:05:47.759Z,2.00
2022-12-28T00:06:29.875Z,2.28
2022-12-28T00:07:11.797Z,2.28
2022-12-28T00:07:53.468Z,2.00
2022-12-28T00:08:35.714Z,2.30
2022-12-28T00:09:17.460Z,2.40
2022-12-28T00:09:59.133Z,2.30
2022-12-28T00:11:09.122Z,2.30
2022-12-28T00:11:42.998Z,2.10
2022-12-28T00:12:24.780Z,2.42
2022-12-28T00:13:06.515Z,2.38
2022-12-28T00:13:48.753Z,2.20
2022-12-28T00:14:30.515Z,2.50
2022-12-28T00:15:12.459Z,2.53
2022-12-28T00:15:54.197Z,2.13
2022-12-28T00:16:41.359Z,2.65
2022-12-28T00:17:23.084Z,2.10
2022-12-28T00:18:04.855Z,2.13
2022-12-28T00:18:46.610Z,2.40
2022-12-28T00:19:28.386Z,2.40
2022-12-28T00:20:10.876Z,2.20
2022-12-28T00:20:59.809Z,2.17
2022-12-28T00:21:43.063Z,2.00
2022-12-28T00:22:24.912Z,2.00
2022-12-28T00:23:06.897Z,2.10
2022-12-28T00:23:50.451Z,1.80
2022-12-28T00:24:32.189Z,2.15
2022-12-28T00:25:13.864Z,2.20
2022-12-28T00:25:56.134Z,2.17
2022-12-28T00:26:37.815Z,2.60
2022-12-28T00:27:19.630Z,2.50
2022-12-28T00:28:01.353Z,2.10
2022-12-28T00:28:45.386Z,2.17
2022-12-28T00:29:27.115Z,2.38
2022-12-28T00:30:09.540Z,1.95
2022-12-28T00:30:51.755Z,2.20
2022-12-28T00:31:34.302Z,2.30
2022-12-28T00:32:16.335Z,1.83
2022-12-28T00:32:58.599Z,1.80
2022-12-28T00:33:40.415Z,2.10
2022-12-28T00:34:22.227Z,2.38
2022-12-28T00:35:04.512Z,2.13
2022-12-28T00:35:54.094Z,2.40
2022-12-28T00:37:11.143Z,1.98
2022-12-28T00:37:37.916Z,2.38
2022-12-28T00:38:19.625Z,2.30
2022-12-28T00:39:01.516Z,2.50
2022-12-28T00:39:43.259Z,2.25
2022-12-28T00:40:25.164Z,2.33
2022-12-28T00:41:07.645Z,2.05
2022-12-28T00:41:52.274Z,2.10
2022-12-28T00:42:34.435Z,2.30
2022-12-28T00:43:16.271Z,2.15
2022-12-28T00:43:58.031Z,2.20
2022-12-28T00:44:40.133Z,2.10
2022-12-28T00:45:24.589Z,2.47
2022-12-28T00:46:06.477Z,2.03
2022-12-28T00:46:48.250Z,2.20
2022-12-28T00:47:29.950Z,2.20
2022-12-28T00:48:12.125Z,2.30
2022-12-28T00:48:53.938Z,2.22
2022-12-28T00:49:35.608Z,2.40
2022-12-28T00:50:17.382Z,2.17
2022-12-28T00:51:13.973Z,2.33
2022-12-28T00:51:55.754Z,2.00
2022-12-28T00:52:37.587Z,1.93
2022-12-28T00:53:19.293Z,2.22
2022-12-28T00:54:01.099Z,2.47
2022-12-28T00:54:42.806Z,2.33
2022-12-28T00:55:24.528Z,2.60
2022-12-28T00:56:12.092Z,2.10
2022-12-28T00:56:53.814Z,2.08
2022-12-28T00:57:37.316Z,2.40
2022-12-28T00:58:19.046Z,2.50
2022-12-28T00:59:00.876Z,2.38
2022-12-28T00:59:42.581Z,2.50
2022-12-28T01:00:24.506Z,2.25
2022-12-28T01:01:15.822Z,2.40
2022-12-28T01:01:57.793Z,2.15
2022-12-28T01:02:39.664Z,2.40
2022-12-28T01:03:21.463Z,2.10
2022-12-28T01:04:03.530Z,2.20
2022-12-28T01:04:45.259Z,2.08
2022-12-28T01:05:27.261Z,2.25
2022-12-28T01:06:10.770Z,2.22
2022-12-28T01:06:52.489Z,2.30
2022-12-28T01:07:34.231Z,2.30
2022-12-28T01:08:15.977Z,1.80
2022-12-28T01:08:57.996Z,2.00
2022-12-28T01:09:40.122Z,2.05
2022-12-28T01:10:21.772Z,2.10
2022-12-28T01:11:12.059Z,2.35
2022-12-28T01:11:56.417Z,2.00
2022-12-28T01:12:38.610Z,1.95
2022-12-28T01:13:20.400Z,2.20
2022-12-28T01:14:02.827Z,2.10
2022-12-28T01:14:44.643Z,2.40
2022-12-28T01:15:26.424Z,2.45
2022-12-28T01:16:16.776Z,2.13
2022-12-28T01:16:58.617Z,2.40
2022-12-28T01:17:40.383Z,2.35
2022-12-28T01:18:22.046Z,2.40
2022-12-28T01:19:06.410Z,2.40
2022-12-28T01:19:53.758Z,2.92
2022-12-28T01:20:35.853Z,2.70
2022-12-28T01:21:20.312Z,2.80
2022-12-28T01:22:02.087Z,2.50
2022-12-28T01:22:43.753Z,3.00
2022-12-28T01:23:25.453Z,2.40
2022-12-28T01:24:08.647Z,2.80
2022-12-28T01:24:50.324Z,2.53
2022-12-28T01:25:33.434Z,2.60
2022-12-28T01:26:16.227Z,2.38
2022-12-28T01:26:57.986Z,2.30
2022-12-28T01:27:40.002Z,2.63
2022-12-28T01:28:21.661Z,2.50
2022-12-28T01:29:05.761Z,2.20
2022-12-28T01:29:47.841Z,2.55
2022-12-28T01:30:30.491Z,2.78
2022-12-28T01:31:14.750Z,2.40
2022-12-28T01:31:56.490Z,2.40
2022-12-28T01:32:38.254Z,2.50
2022-12-28T01:33:19.906Z,2.50
2022-12-28T01:34:02.656Z,2.60
2022-12-28T01:34:44.360Z,2.60
2022-12-28T01:35:27.411Z,2.30
2022-12-28T01:36:13.098Z,2.33
2022-12-28T01:36:55.171Z,2.60
2022-12-28T01:37:36.872Z,2.70
2022-12-28T01:38:18.573Z,2.38
2022-12-28T01:39:03.629Z,3.40
2022-12-28T01:39:45.346Z,2.80
2022-12-28T01:40:27.084Z,2.60
2022-12-28T01:41:10.895Z,2.38
2022-12-28T01:41:52.580Z,2.35
2022-12-28T01:42:38.161Z,2.30
2022-12-28T01:43:29.622Z,2.13
2022-12-28T01:44:11.673Z,2.63
2022-12-28T01:44:53.431Z,2.40
2022-12-28T01:45:35.231Z,2.30
2022-12-28T01:46:38.427Z,2.70
2022-12-28T01:47:25.107Z,2.70
2022-12-28T01:48:17.420Z,2.28
2022-12-28T01:49:05.577Z,2.60
2022-12-28T01:49:52.827Z,2.53
2022-12-28T01:50:34.557Z,2.20
2022-12-28T01:51:17.851Z,2.13
2022-12-28T01:52:08.102Z,2.42
2022-12-28T01:52:55.492Z,2.33
2022-12-28T01:53:37.271Z,2.25
2022-12-28T01:54:22.073Z,2.30
2022-12-28T01:55:15.571Z,2.78
2022-12-28T01:55:57.579Z,2.20
2022-12-28T01:56:40.700Z,2.50
2022-12-28T01:57:27.597Z,2.78
2022-12-28T01:58:14.713Z,2.15
2022-12-28T01:58:57.562Z,2.70
2022-12-28T01:59:45.932Z,2.50
2022-12-28T02:00:28.141Z,2.45
2022-12-28T02:01:10.319Z,2.35
2022-12-28T02:01:52.382Z,2.53
2022-12-28T02:02:35.394Z,2.58
2022-12-28T02:03:24.395Z,2.70
2022-12-28T02:04:06.137Z,2.78
2022-12-28T02:04:48.701Z,2.58
2022-12-28T02:05:36.791Z,2.85
2022-12-28T02:06:19.332Z,2.40
2022-12-28T02:07:01.262Z,2.60
2022-12-28T02:07:48.297Z,2.63
2022-12-28T02:08:46.240Z,2.20
2022-12-28T02:09:37.744Z,2.60
2022-12-28T02:10:42.618Z,2.70
2022-12-28T02:11:22.490Z,2.60
2022-12-28T02:12:04.388Z,2.58
2022-12-28T02:12:46.800Z,2.80
2022-12-28T02:13:28.694Z,2.85
2022-12-28T02:14:13.207Z,2.90
2022-12-28T02:14:55.016Z,2.30
2022-12-28T02:15:36.693Z,2.65
2022-12-28T02:16:19.190Z,2.78
2022-12-28T02:17:01.522Z,2.75
2022-12-28T02:17:43.369Z,2.80
2022-12-28T02:18:25.897Z,2.40
2022-12-28T02:19:12.109Z,2.20
2022-12-28T02:19:53.933Z,2.03
2022-12-28T02:21:09.102Z,2.50
2022-12-28T02:22:28.442Z,2.50
2022-12-28T02:23:36.542Z,2.20
2022-12-28T02:25:12.585Z,2.70
2022-12-28T02:26:07.155Z,2.47
2022-12-28T02:27:01.708Z,2.80
2022-12-28T02:27:46.346Z,2.20
2022-12-28T02:29:09.324Z,1.95
2022-12-28T02:30:07.751Z,1.90
2022-12-28T02:30:57.280Z,2.30
2022-12-28T02:32:04.677Z,1.77
2022-12-28T02:33:12.185Z,2.40
2022-12-28T02:34:17.637Z,2.50
2022-12-28T02:35:03.360Z,1.90
2022-12-28T02:36:18.248Z,1.80
2022-12-28T02:37:34.660Z,2.00
2022-12-28T02:38:21.928Z,1.90
2022-12-28T02:39:10.460Z,1.80
2022-12-28T02:39:58.426Z,2.20
2022-12-28T02:41:03.456Z,2.10
2022-12-28T02:41:47.060Z,1.80
2022-12-28T02:42:30.055Z,2.00
2022-12-28T02:43:12.970Z,2.28
2022-12-28T02:43:55.183Z,2.03
2022-12-28T02:44:56.267Z,2.00
2022-12-28T02:45:59.540Z,1.60
2022-12-28T02:46:59.860Z,1.80
2022-12-28T02:48:02.706Z,2.22
2022-12-28T02:49:05.275Z,2.10
2022-12-28T02:50:05.613Z,1.70
2022-12-28T02:50:59.310Z,2.05
2022-12-28T02:52:01.659Z,1.90
2022-12-28T02:53:21.670Z,1.65
2022-12-28T02:54:40.828Z,1.73
2022-12-28T02:56:08.398Z,2.00
2022-12-28T02:57:00.807Z,1.70
2022-12-28T02:57:52.932Z,1.85
2022-12-28T02:59:04.349Z,2.00
2022-12-28T03:00:07.161Z,1.90
2022-12-28T03:01:09.953Z,1.73
2022-12-28T03:02:14.585Z,2.40
2022-12-28T03:03:17.742Z,1.90
2022-12-28T03:04:11.459Z,1.90
2022-12-28T03:05:04.998Z,1.70
2022-12-28T03:06:19.107Z,2.20
2022-12-28T03:07:27.866Z,1.80
2022-12-28T03:08:20.152Z,1.70
2022-12-28T03:09:12.119Z,1.70
2022-12-28T03:10:33.322Z,1.90
2022-12-28T03:11:20.032Z,2.00
2022-12-28T03:12:10.479Z,1.80
2022-12-28T03:13:03.624Z,2.03
2022-12-28T03:14:03.006Z,1.63
2022-12-28T03:15:09.522Z,1.83
2022-12-28T03:15:51.395Z,1.60
2022-12-28T03:16:59.349Z,1.60
2022-12-28T03:18:02.914Z,1.95
2022-12-28T03:19:07.560Z,1.80
2022-12-28T03:20:22.106Z,1.67
2022-12-28T03:21:27.512Z,1.90
2022-12-28T03:22:29.036Z,1.80
2022-12-28T03:23:33.293Z,1.63
2022-12-28T03:24:36.979Z,1.80
2022-12-28T03:25:40.992Z,1.60
2022-12-28T03:26:42.315Z,2.28
2022-12-28T03:27:43.400Z,1.65
2022-12-28T03:28:46.418Z,1.90
2022-12-28T03:29:48.841Z,1.90
2022-12-28T03:30:51.794Z,1.63
2022-12-28T03:31:36.726Z,1.95
2022-12-28T03:32:18.971Z,1.63
2022-12-28T03:33:01.183Z,1.83
2022-12-28T03:33:46.504Z,1.88
2022-12-28T03:34:28.307Z,2.15
2022-12-28T03:35:10.534Z,1.90
2022-12-28T03:36:11.102Z,2.05
2022-12-28T03:37:04.960Z,1.80
2022-12-28T03:38:03.166Z,2.05
2022-12-28T03:39:08.865Z,1.83
2022-12-28T03:40:08.041Z,1.80
2022-12-28T03:40:51.536Z,1.90
2022-12-28T03:41:49.664Z,1.90
2022-12-28T03:43:04.642Z,1.60
2022-12-28T03:43:54.345Z,1.52
2022-12-28T03:44:36.489Z,1.90
2022-12-28T03:45:58.499Z,1.70
2022-12-28T03:46:46.778Z,1.90
2022-12-28T03:47:31.945Z,1.90
2022-12-28T03:48:14.900Z,1.88
2022-12-28T03:48:59.334Z,1.90
2022-12-28T03:49:41.618Z,1.80
2022-12-28T03:50:24.667Z,1.70
2022-12-28T03:51:06.441Z,2.10
2022-12-28T03:51:48.781Z,2.08
2022-12-28T03:52:32.325Z,2.10
2022-12-28T03:53:16.031Z,1.70
2022-12-28T03:53:57.788Z,1.90
2022-12-28T03:54:40.674Z,2.10
2022-12-28T03:55:23.907Z,1.70
2022-12-28T03:56:13.973Z,1.70
2022-12-28T03:56:55.625Z,2.30
2022-12-28T03:57:37.319Z,2.30
2022-12-28T03:58:21.463Z,2.15
2022-12-28T03:59:03.194Z,2.20
2022-12-28T03:59:44.960Z,1.90
2022-12-28T04:00:26.755Z,2.08
2022-12-28T04:01:08.731Z,1.65
2022-12-28T04:01:50.580Z,1.70
2022-12-28T04:02:32.585Z,1.73
2022-12-28T04:03:14.374Z,2.00
2022-12-28T04:03:56.072Z,1.70
2022-12-28T04:04:37.702Z,1.70
2022-12-28T04:05:21.595Z,2.05
2022-12-28T04:06:03.653Z,2.00
2022-12-28T04:06:46.769Z,2.13
2022-12-28T04:07:28.710Z,2.30
2022-12-28T04:08:10.397Z,2.00
2022-12-28T04:08:52.088Z,1.90
2022-12-28T04:09:34.166Z,2.00
2022-12-28T04:10:15.893Z,2.00
2022-12-28T04:11:02.319Z,1.70
2022-12-28T04:11:44.239Z,1.60
2022-12-28T04:12:26.559Z,1.70
2022-12-28T04:13:08.201Z,2.08
2022-12-28T04:13:49.921Z,2.10
2022-12-28T04:14:31.639Z,1.80
2022-12-28T04:15:13.349Z,1.73
2022-12-28T04:16:00.050Z,1.90
2022-12-28T04:16:41.761Z,1.80
2022-12-28T04:17:23.407Z,1.70
2022-12-28T04:18:05.133Z,1.90
2022-12-28T04:18:47.370Z,1.90
2022-12-28T04:19:29.012Z,1.60
2022-12-28T04:20:10.780Z,1.80
2022-12-28T04:20:52.925Z,1.52
2022-12-28T04:21:34.565Z,1.90
2022-12-28T04:22:16.253Z,1.60
2022-12-28T04:22:57.904Z,1.70
2022-12-28T04:23:42.173Z,1.90
2022-12-28T04:24:23.838Z,2.45
2022-12-28T04:25:06.110Z,2.30
2022-12-28T04:26:17.377Z,1.75
2022-12-28T04:26:59.025Z,1.63
2022-12-28T04:27:40.692Z,1.60
2022-12-28T04:28:22.407Z,1.42
2022-12-28T04:29:05.422Z,1.40
2022-12-28T04:29:47.083Z,1.80
2022-12-28T04:30:28.794Z,1.90
2022-12-28T04:31:13.349Z,1.73
2022-12-28T04:31:55.151Z,1.63
2022-12-28T04:32:36.930Z,1.67
2022-12-28T04:33:18.833Z,1.90
2022-12-28T04:34:00.530Z,1.60
2022-12-28T04:34:48.245Z,1.70
2022-12-28T04:35:32.397Z,1.70
2022-12-28T04:36:16.364Z,2.30
2022-12-28T04:36:58.066Z,1.83
2022-12-28T04:37:39.708Z,1.70
2022-12-28T04:38:21.777Z,1.80
2022-12-28T04:39:06.136Z,1.60
2022-12-28T04:39:56.137Z,1.67
2022-12-28T04:40:38.807Z,2.00
2022-12-28T04:41:20.663Z,1.92
2022-12-28T04:42:02.420Z,1.83
2022-12-28T04:42:44.069Z,1.80
2022-12-28T04:43:25.730Z,1.63
2022-12-28T04:44:07.423Z,1.80
2022-12-28T04:44:49.061Z,1.90
2022-12-28T04:45:30.846Z,1.70
2022-12-28T04:46:14.925Z,1.60
2022-12-28T04:46:56.662Z,1.50
2022-12-28T04:47:38.399Z,1.50
2022-12-28T04:48:20.085Z,1.60
2022-12-28T04:49:01.780Z,1.50
2022-12-28T04:49:43.509Z,1.83
2022-12-28T04:50:25.957Z,2.00
2022-12-28T04:51:25.103Z,1.70
2022-12-28T04:52:06.789Z,1.70
2022-12-28T04:52:48.431Z,1.60
2022-12-28T04:53:30.114Z,1.60
2022-12-28T04:54:14.630Z,1.50
2022-12-28T04:54:56.273Z,1.63
2022-12-28T04:55:37.916Z,1.70
2022-12-28T04:56:24.471Z,1.65
2022-12-28T04:57:06.826Z,1.70
2022-12-28T04:57:48.567Z,1.48
2022-12-28T04:58:30.328Z,1.50
2022-12-28T04:59:12.070Z,1.70
2022-12-28T04:59:53.788Z,1.70
2022-12-28T05:00:35.497Z,1.50
2022-12-28T05:01:19.715Z,1.80
2022-12-28T05:02:01.675Z,1.90
2022-12-28T05:02:46.338Z,1.52
2022-12-28T05:03:28.280Z,1.70
2022-12-28T05:04:10.205Z,1.50
2022-12-28T05:04:53.431Z,1.90
2022-12-28T05:05:36.778Z,1.80
2022-12-28T05:06:22.052Z,1.50
2022-12-28T05:07:03.763Z,1.60
2022-12-28T05:07:45.514Z,1.40
2022-12-28T05:08:27.468Z,1.50
2022-12-28T05:09:09.263Z,1.70
2022-12-28T05:09:51.001Z,1.80
2022-12-28T05:10:32.772Z,1.60
2022-12-28T05:11:18.723Z,1.60
2022-12-28T05:12:00.421Z,1.50
2022-12-28T05:12:42.235Z,1.30
2022-12-28T05:13:23.933Z,1.60
2022-12-28T05:14:05.641Z,1.58
2022-12-28T05:14:47.463Z,1.77
2022-12-28T05:15:29.131Z,1.90
2022-12-28T05:16:16.675Z,1.65
2022-12-28T05:16:58.335Z,1.40
2022-12-28T05:17:40.085Z,1.60
2022-12-28T05:18:21.845Z,1.70
2022-12-28T05:19:03.772Z,1.77
2022-12-28T05:19:45.516Z,2.00
2022-12-28T05:20:27.359Z,1.88
2022-12-28T05:21:12.529Z,1.63
2022-12-28T05:21:54.272Z,1.40
2022-12-28T05:22:40.633Z,1.20
2022-12-28T05:23:22.833Z,1.33
2022-12-28T05:24:04.702Z,1.80
2022-12-28T05:24:46.365Z,1.63
2022-12-28T05:25:28.088Z,1.50
2022-12-28T05:26:13.007Z,1.50
2022-12-28T05:26:54.986Z,1.70
2022-12-28T05:27:36.751Z,1.70
2022-12-28T05:28:18.535Z,1.60
2022-12-28T05:29:00.688Z,1.30
2022-12-28T05:29:42.444Z,1.30
2022-12-28T05:30:24.161Z,1.52
2022-12-28T05:31:10.604Z,1.63
2022-12-28T05:31:52.409Z,1.50
2022-12-28T05:32:34.197Z,1.80
2022-12-28T05:33:15.882Z,1.40
2022-12-28T05:33:58.055Z,1.48
2022-12-28T05:34:39.838Z,1.40
2022-12-28T05:35:21.587Z,1.33
2022-12-28T05:36:05.412Z,1.40
2022-12-28T05:36:47.233Z,1.50
2022-12-28T05:37:29.001Z,1.60
2022-12-28T05:38:11.331Z,1.70
2022-12-28T05:38:54.403Z,1.40
2022-12-28T05:39:36.195Z,1.40
2022-12-28T05:40:17.863Z,1.50
2022-12-28T05:41:27.023Z,1.65
2022-12-28T05:42:08.720Z,1.80
2022-12-28T05:42:51.760Z,1.67
2022-12-28T05:43:34.106Z,1.10
2022-12-28T05:44:15.814Z,1.20
2022-12-28T05:44:57.559Z,1.10
2022-12-28T05:45:39.244Z,1.20
2022-12-28T05:46:25.281Z,1.30
2022-12-28T05:47:07.047Z,1.20
2022-12-28T05:47:48.794Z,1.25
2022-12-28T05:48:32.380Z,1.63
2022-12-28T05:49:14.130Z,1.30
2022-12-28T05:49:55.855Z,1.30
2022-12-28T05:50:37.578Z,1.20
2022-12-28T05:51:21.746Z,1.30
2022-12-28T05:52:03.506Z,1.30
2022-12-28T05:52:45.220Z,1.80
2022-12-28T05:53:28.893Z,1.10
2022-12-28T05:54:10.600Z,1.40
2022-12-28T05:54:52.250Z,1.20
2022-12-28T05:55:33.916Z,1.20
2022-12-28T05:56:17.525Z,1.20
2022-12-28T05:56:59.613Z,1.17
2022-12-28T05:57:41.392Z,1.33
2022-12-28T05:58:23.125Z,1.30
2022-12-28T05:59:06.853Z,1.20
2022-12-28T05:59:48.519Z,1.67
2022-12-28T06:00:30.202Z,1.70
2022-12-28T06:01:18.749Z,1.42
2022-12-28T06:02:00.662Z,1.50
2022-12-28T06:02:42.598Z,1.33
2022-12-28T06:03:24.406Z,1.20
2022-12-28T06:04:08.973Z,1.27
2022-12-28T06:04:50.714Z,1.30
2022-12-28T06:05:32.351Z,1.40
2022-12-28T06:06:18.819Z,1.38
2022-12-28T06:07:00.495Z,1.20
2022-12-28T06:07:42.252Z,1.40
2022-12-28T06:08:24.056Z,1.45
2022-12-28T06:09:05.854Z,1.38
2022-12-28T06:09:47.532Z,1.20
2022-12-28T06:10:29.251Z,1.55
2022-12-28T06:11:14.137Z,1.33
2022-12-28T06:11:55.876Z,1.40
2022-12-28T06:12:37.556Z,1.70
2022-12-28T06:13:19.257Z,1.40
2022-12-28T06:14:03.539Z,1.80
2022-12-28T06:14:45.279Z,1.50
2022-12-28T06:15:26.983Z,1.52
2022-12-28T06:16:14.689Z,1.70
2022-12-28T06:16:56.467Z,1.30
2022-12-28T06:17:40.438Z,1.50
2022-12-28T06:18:22.317Z,1.30
2022-12-28T06:19:09.839Z,1.55
2022-12-28T06:19:51.555Z,1.50
2022-12-28T06:20:33.258Z,1.30
2022-12-28T06:21:18.503Z,1.50
2022-12-28T06:22:00.236Z,1.30
2022-12-28T06:22:41.998Z,1.23
2022-12-28T06:23:23.792Z,1.27
2022-12-28T06:24:06.141Z,1.23
2022-12-28T06:24:47.893Z,1.30
2022-12-28T06:25:29.615Z,1.23
2022-12-28T06:26:13.978Z,1.40
2022-12-28T06:26:55.761Z,1.30
2022-12-28T06:27:37.419Z,1.30
2022-12-28T06:28:19.162Z,1.30
2022-12-28T06:29:04.395Z,1.20
2022-12-28T06:29:46.113Z,1.30
2022-12-28T06:30:27.832Z,1.52
2022-12-28T06:31:14.301Z,1.75
2022-12-28T06:31:56.605Z,1.00
2022-12-28T06:32:38.309Z,1.23
2022-12-28T06:33:20.117Z,1.30
2022-12-28T06:34:03.796Z,1.40
2022-12-28T06:34:45.544Z,1.40
2022-12-28T06:35:27.319Z,1.40
2022-12-28T06:36:20.238Z,1.20
2022-12-28T06:37:04.182Z,1.38
2022-12-28T06:37:47.829Z,1.70
2022-12-28T06:38:32.493Z,1.40
2022-12-28T06:39:15.033Z,1.30
2022-12-28T06:39:56.785Z,1.30
2022-12-28T06:41:11.706Z,1.30
2022-12-28T06:41:40.852Z,1.40
2022-12-28T06:42:22.540Z,1.58
2022-12-28T06:43:04.294Z,1.20
2022-12-28T06:43:46.767Z,1.20
2022-12-28T06:44:30.440Z,1.27
2022-12-28T06:45:12.078Z,1.10
2022-12-28T06:45:57.214Z,1.40
2022-12-28T06:46:39.548Z,1.30
2022-12-28T06:47:21.296Z,1.60
2022-12-28T06:48:03.069Z,1.80
2022-12-28T06:48:45.229Z,1.30
2022-12-28T06:49:26.925Z,1.65
2022-12-28T06:50:09.288Z,1.50
2022-12-28T06:50:58.952Z,1.38
2022-12-28T06:51:42.176Z,1.98
2022-12-28T06:52:24.060Z,1.50
2022-12-28T06:53:05.770Z,1.40
2022-12-28T06:53:48.678Z,1.50
2022-12-28T06:54:30.342Z,1.67
2022-12-28T06:55:12.014Z,1.55
2022-12-28T06:56:17.451Z,1.33
2022-12-28T06:56:59.136Z,1.70
2022-12-28T06:57:40.842Z,1.38
2022-12-28T06:58:23.839Z,1.35
2022-12-28T06:59:06.133Z,1.20
2022-12-28T06:59:47.866Z,1.10
2022-12-28T07:00:29.608Z,1.38
2022-12-28T07:01:21.740Z,1.40
2022-12-28T07:02:03.736Z,1.30
2022-12-28T07:02:45.680Z,1.40
2022-12-28T07:03:27.435Z,1.40
2022-12-28T07:04:10.647Z,1.40
2022-12-28T07:04:54.787Z,1.50
2022-12-28T07:05:36.449Z,1.30
2022-12-28T07:06:20.019Z,1.20
2022-12-28T07:07:01.689Z,1.30
2022-12-28T07:07:45.858Z,1.30
2022-12-28T07:08:28.634Z,1.40
2022-12-28T07:09:13.918Z,1.50
2022-12-28T07:09:55.682Z,1.40
2022-12-28T07:10:37.460Z,1.40
2022-12-28T07:11:21.825Z,1.30
2022-12-28T07:12:03.788Z,1.30
2022-12-28T07:12:45.474Z,1.40
2022-12-28T07:13:28.471Z,1.60
2022-12-28T07:14:11.018Z,1.60
2022-12-28T07:14:52.752Z,1.77
2022-12-28T07:15:35.983Z,1.60
2022-12-28T07:16:20.308Z,1.50
2022-12-28T07:17:02.238Z,1.30
2022-12-28T07:17:43.913Z,1.55
2022-12-28T07:18:25.636Z,2.00
2022-12-28T07:19:07.571Z,1.70
2022-12-28T07:19:53.331Z,1.55
2022-12-28T07:20:40.212Z,1.80
2022-12-28T07:21:26.648Z,1.52
2022-12-28T07:22:08.782Z,1.58
2022-12-28T07:22:50.531Z,1.40
2022-12-28T07:23:33.030Z,1.40
2022-12-28T07:24:14.695Z,1.40
2022-12-28T07:24:57.020Z,1.20
2022-12-28T07:25:38.732Z,1.20
2022-12-28T07:26:22.673Z,1.42
2022-12-28T07:27:04.310Z,1.63
2022-12-28T07:27:46.083Z,1.70
2022-12-28T07:28:27.818Z,1.50
2022-12-28T07:29:09.483Z,1.50
2022-12-28T07:29:51.160Z,1.40
2022-12-28T07:30:32.941Z,1.38
2022-12-28T07:31:26.500Z,1.40
2022-12-28T07:32:08.184Z,1.30
2022-12-28T07:32:49.851Z,1.35
2022-12-28T07:33:31.507Z,1.40
2022-12-28T07:34:15.154Z,1.52
2022-12-28T07:34:56.842Z,1.50
2022-12-28T07:35:38.472Z,1.45
2022-12-28T07:36:22.033Z,1.40
2022-12-28T07:37:03.705Z,1.30
2022-12-28T07:37:46.180Z,1.30
2022-12-28T07:38:27.870Z,1.20
2022-12-28T07:39:10.367Z,1.20
2022-12-28T07:39:52.143Z,1.27
2022-12-28T07:40:33.818Z,1.50
2022-12-28T07:41:24.620Z,1.25
2022-12-28T07:42:10.730Z,1.33
2022-12-28T07:42:52.509Z,1.60
2022-12-28T07:43:34.918Z,1.35
2022-12-28T07:44:16.979Z,1.38
2022-12-28T07:44:58.745Z,1.40
2022-12-28T07:45:40.478Z,1.17
2022-12-28T07:46:25.616Z,1.20
2022-12-28T07:47:08.205Z,1.40
2022-12-28T07:47:49.909Z,1.50
2022-12-28T07:48:32.811Z,1.30
2022-12-28T07:49:14.602Z,1.33
2022-12-28T07:49:56.239Z,1.30
2022-12-28T07:50:38.330Z,1.10
2022-12-28T07:51:28.144Z,1.20
2022-12-28T07:52:09.810Z,1.05
2022-12-28T07:52:51.566Z,1.25
2022-12-28T07:53:33.321Z,1.27
2022-12-28T07:54:15.375Z,1.30
2022-12-28T07:54:57.063Z,1.40
2022-12-28T07:55:40.346Z,1.50
2022-12-28T07:56:23.433Z,1.30
2022-12-28T07:57:05.095Z,1.30
2022-12-28T07:57:46.778Z,1.20
2022-12-28T07:58:28.553Z,1.00
2022-12-28T07:59:13.408Z,1.30
2022-12-28T07:59:55.104Z,1.30
2022-12-28T08:00:36.780Z,1.05
2022-12-28T08:01:20.426Z,1.20
2022-12-28T08:02:02.213Z,1.30
2022-12-28T08:02:44.061Z,1.33
2022-12-28T08:03:25.762Z,1.80
2022-12-28T08:04:10.182Z,1.20
2022-12-28T08:04:52.486Z,1.00
2022-12-28T08:05:34.439Z,1.20
2022-12-28T08:06:23.056Z,1.08
2022-12-28T08:07:04.785Z,1.10
2022-12-28T08:07:46.451Z,1.20
2022-12-28T08:08:28.123Z,1.30
2022-12-28T08:09:11.572Z,1.40
2022-12-28T08:09:53.246Z,1.20
2022-12-28T08:10:35.031Z,1.20
2022-12-28T08:11:19.883Z,1.20
2022-12-28T08:12:02.459Z,1.45
2022-12-28T08:12:44.147Z,1.50
2022-12-28T08:13:25.850Z,1.20
2022-12-28T08:14:08.421Z,1.20
2022-12-28T08:14:50.090Z,1.30
2022-12-28T08:15:32.197Z,1.27
2022-12-28T08:16:16.141Z,1.15
2022-12-28T08:16:57.898Z,1.20
2022-12-28T08:17:39.581Z,1.10
2022-12-28T08:18:21.243Z,1.00
2022-12-28T08:19:03.747Z,1.30
2022-12-28T08:19:45.473Z,1.38
2022-12-28T08:20:27.126Z,1.30
2022-12-28T08:21:13.850Z,1.20
2022-12-28T08:21:55.514Z,1.20
2022-12-28T08:22:37.197Z,1.20
2022-12-28T08:23:18.892Z,1.10
2022-12-28T08:24:01.420Z,1.20
2022-12-28T08:24:43.115Z,1.30
2022-12-28T08:25:25.242Z,1.23
2022-12-28T08:26:13.340Z,1.33
2022-12-28T08:26:55.099Z,1.30
2022-12-28T08:27:38.736Z,1.38
2022-12-28T08:28:20.601Z,1.17
2022-12-28T08:29:10.071Z,1.20
2022-12-28T08:29:51.832Z,1.10
2022-12-28T08:30:33.594Z,1.20
2022-12-28T08:31:18.769Z,1.10
2022-12-28T08:32:00.567Z,1.10
2022-12-28T08:32:42.389Z,1.10
2022-12-28T08:33:24.187Z,1.00
2022-12-28T08:34:08.559Z,1.15
2022-12-28T08:34:50.224Z,1.30
2022-12-28T08:35:31.939Z,1.20
2022-12-28T08:36:14.121Z,1.20
2022-12-28T08:36:56.681Z,1.20
2022-12-28T08:37:38.452Z,1.10
2022-12-28T08:38:20.118Z,1.30
2022-12-28T08:39:02.959Z,1.00
2022-12-28T08:39:44.652Z,1.10
2022-12-28T08:40:29.835Z,1.38
2022-12-28T08:41:15.167Z,1.30
2022-12-28T08:41:57.252Z,1.20
2022-12-28T08:42:38.936Z,1.20
2022-12-28T08:43:20.600Z,1.20
2022-12-28T08:44:02.540Z,1.30
2022-12-28T08:44:44.188Z,1.30
2022-12-28T08:45:26.572Z,1.02
2022-12-28T08:46:12.278Z,1.27
2022-12-28T08:46:54.633Z,1.30
2022-12-28T08:47:36.302Z,1.20
2022-12-28T08:48:17.951Z,1.20
2022-12-28T08:49:00.702Z,1.00
2022-12-28T08:49:44.428Z,1.15
2022-12-28T08:50:31.396Z,1.20
2022-12-28T08:51:19.802Z,1.52
2022-12-28T08:52:01.586Z,1.20
2022-12-28T08:52:43.282Z,1.20
2022-12-28T08:53:25.059Z,1.33
2022-12-28T08:54:07.600Z,1.17
2022-12-28T08:54:49.384Z,1.00
2022-12-28T08:55:31.014Z,1.20
2022-12-28T08:56:15.571Z,1.10
2022-12-28T08:56:57.254Z,1.20
2022-12-28T08:57:38.919Z,1.25
2022-12-28T08:58:20.690Z,1.40
2022-12-28T08:59:02.960Z,1.50
2022-12-28T08:59:44.801Z,1.30
2022-12-28T09:00:26.805Z,1.90
2022-12-28T09:01:17.050Z,2.00
2022-12-28T09:01:58.985Z,1.88
2022-12-28T09:02:41.111Z,1.30
2022-12-28T09:03:23.120Z,1.20
2022-12-28T09:04:05.289Z,1.48
2022-12-28T09:04:47.224Z,1.52
2022-12-28T09:05:30.453Z,1.20
2022-12-28T09:06:19.405Z,1.40
2022-12-28T09:07:01.231Z,1.52
2022-12-28T09:07:42.931Z,2.00
2022-12-28T09:08:24.834Z,1.90
2022-12-28T09:09:10.849Z,1.60
2022-12-28T09:09:52.667Z,1.33
2022-12-28T09:10:34.447Z,1.10
2022-12-28T09:11:16.728Z,1.10
2022-12-28T09:11:58.445Z,1.00
2022-12-28T09:12:40.177Z,1.00
2022-12-28T09:13:21.905Z,1.05
2022-12-28T09:14:09.442Z,1.15
2022-12-28T09:14:51.325Z,1.20
2022-12-28T09:15:33.177Z,1.10
2022-12-28T09:16:18.725Z,1.20
2022-12-28T09:17:02.029Z,1.20
2022-12-28T09:17:43.842Z,1.20
2022-12-28T09:18:25.857Z,1.20
2022-12-28T09:19:11.696Z,1.23
2022-12-28T09:19:53.446Z,1.15
2022-12-28T09:20:35.466Z,1.80
2022-12-28T09:21:19.315Z,1.17
2022-12-28T09:22:01.277Z,1.10
2022-12-28T09:22:43.192Z,1.13
2022-12-28T09:23:24.959Z,1.20
2022-12-28T09:24:07.031Z,1.20
2022-12-28T09:24:48.754Z,1.27
2022-12-28T09:25:30.461Z,1.15
2022-12-28T09:26:14.864Z,1.40
2022-12-28T09:26:56.874Z,1.60
2022-12-28T09:27:38.681Z,1.30
2022-12-28T09:28:20.460Z,1.38
2022-12-28T09:29:05.066Z,1.40
2022-12-28T09:29:46.906Z,1.30
2022-12-28T09:30:28.703Z,1.95
2022-12-28T09:31:10.457Z,2.55
2022-12-28T09:31:52.484Z,2.20
2022-12-28T09:32:34.290Z,1.40
2022-12-28T09:33:57.528Z,1.10
2022-12-28T09:34:38.675Z,1.10
2022-12-28T09:35:20.456Z,1.00
2022-12-28T09:36:03.774Z,0.90
2022-12-28T09:36:45.843Z,1.20
2022-12-28T09:37:27.569Z,1.30
2022-12-28T09:38:09.373Z,1.20
2022-12-28T09:38:52.014Z,1.27
2022-12-28T09:39:33.866Z,1.70
2022-12-28T09:40:15.958Z,1.63
2022-12-28T09:40:58.553Z,1.30
2022-12-28T09:41:55.265Z,1.20
2022-12-28T09:42:42.462Z,1.52
2022-12-28T09:43:25.392Z,1.60
2022-12-28T09:44:26.028Z,1.50
2022-12-28T09:45:12.333Z,2.20
2022-12-28T09:45:55.400Z,1.48
2022-12-28T09:46:46.691Z,1.30
2022-12-28T09:47:52.871Z,1.40
2022-12-28T09:48:36.208Z,1.70
2022-12-28T09:49:20.188Z,1.23
2022-12-28T09:50:16.967Z,1.20
2022-12-28T09:50:58.936Z,1.30
2022-12-28T09:51:57.338Z,1.08
2022-12-28T09:52:56.578Z,1.10
2022-12-28T09:53:38.460Z,1.40
2022-12-28T09:54:20.318Z,1.30
2022-12-28T09:55:14.214Z,1.42
2022-12-28T09:56:29.614Z,1.00
2022-12-28T09:57:16.983Z,1.07
2022-12-28T09:58:00.249Z,0.90
2022-12-28T09:58:47.880Z,0.95
2022-12-28T09:59:34.258Z,1.20
2022-12-28T10:00:24.785Z,1.10
2022-12-28T10:01:12.546Z,1.10
2022-12-28T10:02:00.778Z,1.33